Airfield :
LOGIN :

Register | Disclaimer

   EN    FR    IT 

 










Legend :    VFR   Marginal VFR   IFR   Intensive IFR   Very Intensive IFR
Visi :
Ceiling :
>= 8 km
>= 3000ft
5 to 8 km
1000 to 3000 ft
1500m to 5 km
500 to 1000 ft
800 to 1500m
200 to 500 ft
< 800m
< 200 ft
Symbols :   Thunderstorms  Fog  Heavy snow  Heavy precipitations  Wind > 20 kt
SIGMETs :     Misc.  Thunderstorms  Icing  Turbulence  Mountain Waves  Volcanic Ashes






- Airport Elevation : 101 ft
- IATA code : HAD


ESMT - Halmstad

CURRENT METAR :
  • 231120Z AUTO 25014KT 9999 FEW037/// BKN050/// 06/02 Q0998

EXPIRED METARs :
  • 231050Z 25014KT 9999 FEW027 SCT032 BKN043 05/01 Q0998
  • 231020Z 25014KT 9999 FEW025 BKN029 BKN035 06/02 Q0999
  • 230950Z AUTO 24013KT 9999 FEW026/// BKN031/// BKN040/// 05/02 Q0999
  • 230920Z AUTO 24015KT 9999 BKN022/// OVC031/// 05/02 Q0999
  • 230850Z AUTO 25019KT 9999 FEW021/// SCT025/// BKN029/// 06/02 Q0999

TAF TAF ESMT
Valid from the 23 at 09:00 until the 23 at 18:00 UTC


230804Z 2309/2318 25015KT 9999 BKN020
TEMPO 2309/2311 25018G28KT



MET'MAP, your aeronautical weather chart ! - Copyright ORBIFLY December 2007 - Disclaimer

ORBIFLY MET'MAP TEAM :

Programming & Development : Alexandra Zaïnal
Concept & original design : Baudouin d'Aumeries
Assistance for programming : Marc-Olivier Méhu
Technical & hardware support : Manuel Goepfert

Contact : metmap@orbifly.com




SOURCES & CREDITS :

   NOAA